WetterOnline ( https://www.wetteronline.at )

Wetter aktuell Eisenach

Aktuelles Wetter: Eisenach (312m)

6-stündlich | Neueste Meldungen
Ortszeit Temperatur Wetter
Mo, 06.07. 2:00 19.7° C wolkig
So, 05.07. 20:00 22.5° C leichter Regen
So, 05.07. 14:00 21.5° C bewölkt
So, 05.07. 8:00 19.1° C bedeckt
So, 05.07. 2:00 19.8° C bedeckt
Sa, 04.07. 20:00 22.1° C bedeckt
Sa, 04.07. 14:00 21.8° C wolkig
Sa, 04.07. 8:00 15.9° C wolkig
Ortszeit Temperatur Wetter
Mo, 06.07. 3:00 18.8° C bewölkt
Mo, 06.07. 2:50 18.8° C bewölkt
Mo, 06.07. 2:40 18.7° C bewölkt
Mo, 06.07. 2:30 19.3° C leichter Regen
Mo, 06.07. 2:20 19.3° C leichter Regen
Mo, 06.07. 2:10 19.5° C bewölkt
Mo, 06.07. 2:00 19.7° C wolkig
Mo, 06.07. 1:30 19.4° C fast wolkenlos
Mo, 06.07. 1:00 19.7° C wolkenlos
Mo, 06.07. 0:30 20.0° C wolkenlos
Mo, 06.07. 0:00 20.3° C wolkenlos
Ortszeit Relative Feuchte Sichtweite
Mo, 06.07. 2:00 71% >70 km
So, 05.07. 20:00 63% 50 km
So, 05.07. 14:00 71% >70 km
So, 05.07. 8:00 75% 65 km
So, 05.07. 2:00 61% >70 km
Sa, 04.07. 20:00 48% 65 km
Sa, 04.07. 14:00 47% >70 km
Sa, 04.07. 8:00 69% 55 km
Ortszeit Relative Feuchte Sichtweite
Mo, 06.07. 3:00 69% >70 km
Mo, 06.07. 2:50 69% -
Mo, 06.07. 2:40 70% -
Mo, 06.07. 2:30 73% 65 km
Mo, 06.07. 2:20 73% -
Mo, 06.07. 2:10 72% -
Mo, 06.07. 2:00 71% >70 km
Mo, 06.07. 1:30 73% >70 km
Mo, 06.07. 1:00 73% >70 km
Mo, 06.07. 0:30 72% >70 km
Mo, 06.07. 0:00 70% >70 km
Ortszeit Niederschlagsmenge Niederschlagsart
Mo, 06.07. 2:00 0.1 l/m2 in 6 Std. Regen
So, 05.07. 20:00 0.1 l/m2 in 12 Std. Regen
So, 05.07. 14:00 0.1 l/m2 in 6 Std. Sprühregen
So, 05.07. 8:00 0.1 l/m2 in 12 Std. -
So, 05.07. 2:00 0.1 l/m2 in 6 Std. Regen
Sa, 04.07. 20:00 0.1 l/m2 in 12 Std. Regen
Sa, 04.07. 14:00 0.0 l/m2 in 6 Std. -
Sa, 04.07. 8:00 0.0 l/m2 in 12 Std. -
Ortszeit Niederschlagsmenge Niederschlagsart
Mo, 06.07. 3:00 0.1 l/m2 in 1 Std. Regen
Mo, 06.07. 2:50 keine Meldung -
Mo, 06.07. 2:40 keine Meldung -
Mo, 06.07. 2:30 0.1 l/m2 in 1 Std. -
Mo, 06.07. 2:20 keine Meldung -
Mo, 06.07. 2:10 keine Meldung -
Mo, 06.07. 2:00 0.0 l/m2 in 1 Std. Regen
Mo, 06.07. 1:30 0.0 l/m2 in 1 Std. -
Mo, 06.07. 1:00 0.0 l/m2 in 1 Std. -
Mo, 06.07. 0:30 0.0 l/m2 in 1 Std. -
Mo, 06.07. 0:00 0.0 l/m2 in 1 Std. -
Ortszeit Stärke Spitze Richtung
km/h Bft. km/h Grad Sektor
Mo, 06.07. 2:00 18 3 43 240° SW
So, 05.07. 20:00 24 4 50 250° W
So, 05.07. 14:00 25 4 50 240° SW
So, 05.07. 8:00 18 3 40 230° SW
So, 05.07. 2:00 18 3 40 240° SW
Sa, 04.07. 20:00 18 3 58 240° SW
Sa, 04.07. 14:00 24 4 46 220° SW
Sa, 04.07. 8:00 18 3 29 240° SW
Ortszeit Stärke Spitze Richtung
km/h Bft. km/h Grad Sektor
Mo, 06.07. 3:00 22 4 43 270° W
Mo, 06.07. 2:50 22 4 - 270° W
Mo, 06.07. 2:40 22 4 - 270° W
Mo, 06.07. 2:30 18 3 36 270° W
Mo, 06.07. 2:20 18 3 - 270° W
Mo, 06.07. 2:10 18 3 - 270° W
Mo, 06.07. 2:00 18 3 36 240° SW
Mo, 06.07. 1:30 17 3 33 240° SW
Mo, 06.07. 1:00 18 3 36 240° SW
Mo, 06.07. 0:30 17 3 37 250° W
Mo, 06.07. 0:00 17 3 39 250° W
Ortszeit Untergrenze Bedeckung Gattung
total tief tief mittel hoch
Mo, 06.07. 2:00 900 m 5/8 5/8 - - -
So, 05.07. 20:00 1230 m 8/8 8/8 - - -
So, 05.07. 14:00 750 m 7/8 7/8 - - -
So, 05.07. 8:00 720 m 8/8 8/8 - - -
So, 05.07. 2:00 1500 m 8/8 8/8 - - -
Sa, 04.07. 20:00 1500 m 8/8 8/8 - - -
Sa, 04.07. 14:00 5100 m 6/8 7/8 - - -
Sa, 04.07. 8:00 5400 m 8/8 8/8 - - -
Ortszeit Bedeckungsgrad in Achtel und Wolkenuntergrenze
Mo, 06.07. 3:00 1(1110m) 5(1800m) 7(2400m)
Mo, 06.07. 2:50 1(1110m) 5(1800m) 7(2400m)
Mo, 06.07. 2:40 1(780m) 6(2100m) 7(2400m)
Mo, 06.07. 2:30 6(810m) 7(1380m) 8(1500m)
Mo, 06.07. 2:20 6(810m) 7(1380m) 8(1500m)
Mo, 06.07. 2:10 7(810m) 7(930m)
Mo, 06.07. 2:00 5(900m)
Mo, 06.07. 1:30 1(2400m)
Mo, 06.07. 1:00 keine Wolken
Mo, 06.07. 0:30 keine Wolken
Mo, 06.07. 0:00 keine Wolken
Ortszeit Luftdruck NN (hPa) Tendenz (hPa in 3 Std.)
Mo, 06.07. 2:00 1010 - 0,4
So, 05.07. 20:00 1010 - 0,4
So, 05.07. 14:00 1013 - 0,3
So, 05.07. 8:00 1013 - 0,3
So, 05.07. 2:00 1014 - 0,4
Sa, 04.07. 20:00 1014 - 0,5
Sa, 04.07. 14:00 1016 - 1,4
Sa, 04.07. 8:00 1018 + 0,1
Ortszeit Luftdruck NN (hPa) Tendenz (hPa in 3 Std.)
Mo, 06.07. 3:00 1010 0,0
Mo, 06.07. 2:50 1010 keine Meldung
Mo, 06.07. 2:40 1010 keine Meldung
Mo, 06.07. 2:30 1010 - 0,3
Mo, 06.07. 2:20 1010 keine Meldung
Mo, 06.07. 2:10 1010 keine Meldung
Mo, 06.07. 2:00 1010 - 0,4
Mo, 06.07. 1:30 1010 - 0,4
Mo, 06.07. 1:00 1010 - 0,5
Mo, 06.07. 0:30 1010 - 0,3
Mo, 06.07. 0:00 1010 - 0,3
Ortszeit Schneehöhe (cm)
Mo, 06.07. 2:00 -
So, 05.07. 20:00 -
So, 05.07. 14:00 -
So, 05.07. 8:00 -
So, 05.07. 2:00 -
Sa, 04.07. 20:00 -
Sa, 04.07. 14:00 -
Sa, 04.07. 8:00 -
Ortszeit Schneehöhe (cm)
Mo, 06.07. 3:00 -
Mo, 06.07. 2:50 -
Mo, 06.07. 2:40 -
Mo, 06.07. 2:30 -
Mo, 06.07. 2:20 -
Mo, 06.07. 2:10 -
Mo, 06.07. 2:00 -
Mo, 06.07. 1:30 -
Mo, 06.07. 1:00 -
Mo, 06.07. 0:30 -
Mo, 06.07. 0:00 -
Link zu dieser Seite / Seite empfehlen

Das Wetter in ...